sensor_id;sensor_type;location;lat;lon;timestamp;pressure;altitude;pressure_sealevel;temperature;humidity
20825;BME280;10573;50.936;6.978;2023-02-21T00:00:49;101721.13;;;10.71;68.00
20825;BME280;10573;50.936;6.978;2023-02-21T00:03:33;101715.94;;;10.80;67.90
20825;BME280;10573;50.936;6.978;2023-02-21T00:06:16;101708.13;;;10.75;67.78
20825;BME280;10573;50.936;6.978;2023-02-21T00:09:00;101714.94;;;10.81;67.57
20825;BME280;10573;50.936;6.978;2023-02-21T00:11:44;101712.06;;;10.82;67.15
20825;BME280;10573;50.936;6.978;2023-02-21T00:14:28;101701.53;;;10.89;67.07
20825;BME280;10573;50.936;6.978;2023-02-21T00:17:12;101704.78;;;10.94;66.87
20825;BME280;10573;50.936;6.978;2023-02-21T00:19:55;101704.91;;;10.81;67.55
20825;BME280;10573;50.936;6.978;2023-02-21T00:22:39;101709.47;;;10.81;67.90
20825;BME280;10573;50.936;6.978;2023-02-21T00:25:23;101712.47;;;10.66;68.34
20825;BME280;10573;50.936;6.978;2023-02-21T00:28:07;101715.78;;;10.70;67.90
20825;BME280;10573;50.936;6.978;2023-02-21T00:30:51;101707.75;;;10.80;67.80
20825;BME280;10573;50.936;6.978;2023-02-21T00:33:35;101704.28;;;10.89;66.99
20825;BME280;10573;50.936;6.978;2023-02-21T00:36:19;101715.19;;;10.78;67.51
20825;BME280;10573;50.936;6.978;2023-02-21T00:39:03;101723.72;;;10.62;68.12
20825;BME280;10573;50.936;6.978;2023-02-21T00:41:47;101719.50;;;10.57;68.40
20825;BME280;10573;50.936;6.978;2023-02-21T00:44:30;101725.56;;;10.61;68.79
20825;BME280;10573;50.936;6.978;2023-02-21T00:47:14;101719.91;;;10.87;67.63
20825;BME280;10573;50.936;6.978;2023-02-21T00:49:58;101719.91;;;10.87;67.11
20825;BME280;10573;50.936;6.978;2023-02-21T00:52:41;101718.88;;;10.77;67.60
20825;BME280;10573;50.936;6.978;2023-02-21T00:55:25;101706.63;;;10.60;68.04
20825;BME280;10573;50.936;6.978;2023-02-21T00:58:09;101712.19;;;10.81;67.89
20825;BME280;10573;50.936;6.978;2023-02-21T01:00:53;101705.13;;;10.78;67.47
20825;BME280;10573;50.936;6.978;2023-02-21T01:03:37;101714.94;;;10.81;67.29
20825;BME280;10573;50.936;6.978;2023-02-21T01:06:20;101713.56;;;10.98;67.12
20825;BME280;10573;50.936;6.978;2023-02-21T01:09:04;101710.00;;;10.97;67.73
20825;BME280;10573;50.936;6.978;2023-02-21T01:11:48;101710.09;;;10.84;67.89
20825;BME280;10573;50.936;6.978;2023-02-21T01:14:32;101703.03;;;10.70;68.29
20825;BME280;10573;50.936;6.978;2023-02-21T01:17:16;101705.78;;;10.93;67.58
20825;BME280;10573;50.936;6.978;2023-02-21T01:20:00;101709.00;;;10.87;67.22
20825;BME280;10573;50.936;6.978;2023-02-21T01:22:44;101707.75;;;10.68;68.27
20825;BME280;10573;50.936;6.978;2023-02-21T01:25:28;101706.16;;;10.77;68.15
20825;BME280;10573;50.936;6.978;2023-02-21T01:28:12;101703.88;;;10.48;68.78
20825;BME280;10573;50.936;6.978;2023-02-21T01:30:56;101703.38;;;10.43;69.27
20825;BME280;10573;50.936;6.978;2023-02-21T01:33:40;101704.88;;;10.23;69.75
20825;BME280;10573;50.936;6.978;2023-02-21T01:36:24;101703.88;;;10.13;70.40
20825;BME280;10573;50.936;6.978;2023-02-21T01:39:08;101692.09;;;10.12;70.53
20825;BME280;10573;50.936;6.978;2023-02-21T01:41:52;101697.47;;;10.25;70.08
20825;BME280;10573;50.936;6.978;2023-02-21T01:44:46;101691.59;;;10.54;69.34
20825;BME280;10573;50.936;6.978;2023-02-21T01:47:30;101695.06;;;10.45;69.46
20825;BME280;10573;50.936;6.978;2023-02-21T01:50:18;101697.31;;;10.39;69.48
20825;BME280;10573;50.936;6.978;2023-02-21T01:53:06;101697.47;;;10.25;69.87
20825;BME280;10573;50.936;6.978;2023-02-21T01:55:50;101696.19;;;10.42;69.82
20825;BME280;10573;50.936;6.978;2023-02-21T01:58:35;101690.13;;;10.50;69.31
20825;BME280;10573;50.936;6.978;2023-02-21T02:01:30;101688.75;;;10.44;69.66
20825;BME280;10573;50.936;6.978;2023-02-21T02:04:16;101690.63;;;10.44;69.81
20825;BME280;10573;50.936;6.978;2023-02-21T02:06:59;101689.91;;;10.53;69.40
20825;BME280;10573;50.936;6.978;2023-02-21T02:09:43;101688.66;;;10.68;69.08
20825;BME280;10573;50.936;6.978;2023-02-21T02:12:32;101688.41;;;10.60;69.16
20825;BME280;10573;50.936;6.978;2023-02-21T02:20:21;101686.06;;;10.67;68.96
20825;BME280;10573;50.936;6.978;2023-02-21T02:26:10;101671.44;;;10.68;68.98
20825;BME280;10573;50.936;6.978;2023-02-21T02:35:42;101668.84;;;10.66;68.76
20825;BME280;10573;50.936;6.978;2023-02-21T02:45:50;101673.94;;;10.60;68.72
20825;BME280;10573;50.936;6.978;2023-02-21T02:48:21;101668.84;;;10.66;68.69
20825;BME280;10573;50.936;6.978;2023-02-21T02:50:49;101665.50;;;10.63;68.78
20825;BME280;10573;50.936;6.978;2023-02-21T02:53:18;101658.31;;;10.62;69.02
20825;BME280;10573;50.936;6.978;2023-02-21T02:55:51;101656.31;;;10.52;69.33
20825;BME280;10573;50.936;6.978;2023-02-21T02:58:17;101657.06;;;10.66;68.84
20825;BME280;10573;50.936;6.978;2023-02-21T03:00:44;101658.06;;;10.65;69.06
20825;BME280;10573;50.936;6.978;2023-02-21T03:05:41;101654.84;;;10.71;68.14
20825;BME280;10573;50.936;6.978;2023-02-21T03:11:03;101655.59;;;10.84;67.59
20825;BME280;10573;50.936;6.978;2023-02-21T03:13:36;101651.34;;;10.91;67.56
20825;BME280;10573;50.936;6.978;2023-02-21T03:16:08;101656.22;;;10.88;67.67
20825;BME280;10573;50.936;6.978;2023-02-21T03:21:07;101660.03;;;10.97;67.17
20825;BME280;10573;50.936;6.978;2023-02-21T03:23:35;101650.00;;;10.97;67.30
20825;BME280;10573;50.936;6.978;2023-02-21T03:26:02;101651.84;;;10.97;66.96
20825;BME280;10573;50.936;6.978;2023-02-21T03:28:29;101657.19;;;10.98;66.89
20825;BME280;10573;50.936;6.978;2023-02-21T03:30:55;101655.44;;;11.08;66.69
20825;BME280;10573;50.936;6.978;2023-02-21T03:33:22;101652.00;;;10.72;67.60
20825;BME280;10573;50.936;6.978;2023-02-21T03:35:48;101648.66;;;10.80;67.54
20825;BME280;10573;50.936;6.978;2023-02-21T03:38:13;101648.53;;;10.93;67.40
20825;BME280;10573;50.936;6.978;2023-02-21T03:40:39;101643.69;;;10.74;67.76
20825;BME280;10573;50.936;6.978;2023-02-21T03:43:04;101644.31;;;10.55;68.13
20825;BME280;10573;50.936;6.978;2023-02-21T03:45:31;101647.78;;;10.68;67.80
20825;BME280;10573;50.936;6.978;2023-02-21T03:47:57;101647.53;;;10.71;67.21
20825;BME280;10573;50.936;6.978;2023-02-21T03:50:22;101646.19;;;10.77;67.45
20825;BME280;10573;50.936;6.978;2023-02-21T03:52:48;101649.75;;;11.00;66.80
20825;BME280;10573;50.936;6.978;2023-02-21T03:55:13;101645.44;;;10.75;67.64
20825;BME280;10573;50.936;6.978;2023-02-21T03:57:38;101649.88;;;10.87;67.34
20825;BME280;10573;50.936;6.978;2023-02-21T04:00:04;101645.69;;;10.72;67.47
20825;BME280;10573;50.936;6.978;2023-02-21T04:02:29;101644.19;;;10.68;68.47
20825;BME280;10573;50.936;6.978;2023-02-21T04:04:54;101649.13;;;10.74;68.21
20825;BME280;10573;50.936;6.978;2023-02-21T04:07:20;101643.19;;;10.80;67.86
20825;BME280;10573;50.936;6.978;2023-02-21T04:09:46;101643.06;;;10.82;67.51
20825;BME280;10573;50.936;6.978;2023-02-21T04:12:11;101637.38;;;10.73;67.58
20825;BME280;10573;50.936;6.978;2023-02-21T04:14:37;101634.41;;;10.65;67.93
20825;BME280;10573;50.936;6.978;2023-02-21T04:17:02;101630.56;;;10.79;67.65
20825;BME280;10573;50.936;6.978;2023-02-21T04:19:27;101635.75;;;10.71;67.68
20825;BME280;10573;50.936;6.978;2023-02-21T04:21:53;101630.44;;;10.81;67.44
20825;BME280;10573;50.936;6.978;2023-02-21T04:24:18;101628.69;;;10.68;67.76
20825;BME280;10573;50.936;6.978;2023-02-21T04:26:43;101628.22;;;10.74;67.60
20825;BME280;10573;50.936;6.978;2023-02-21T04:29:09;101624.72;;;10.95;66.95
20825;BME280;10573;50.936;6.978;2023-02-21T04:31:34;101628.44;;;10.71;67.72
20825;BME280;10573;50.936;6.978;2023-02-21T04:33:59;101630.16;;;10.95;67.07
20825;BME280;10573;50.936;6.978;2023-02-21T04:36:25;101630.19;;;10.72;67.91
20825;BME280;10573;50.936;6.978;2023-02-21T04:38:51;101633.78;;;10.84;67.11
20825;BME280;10573;50.936;6.978;2023-02-21T04:41:16;101639.84;;;10.77;67.27
20825;BME280;10573;50.936;6.978;2023-02-21T04:43:42;101644.06;;;10.47;68.38
20825;BME280;10573;50.936;6.978;2023-02-21T04:46:07;101636.91;;;10.57;67.84
20825;BME280;10573;50.936;6.978;2023-02-21T04:48:33;101634.31;;;10.55;68.02
20825;BME280;10573;50.936;6.978;2023-02-21T04:50:58;101631.44;;;10.57;68.20
20825;BME280;10573;50.936;6.978;2023-02-21T04:53:23;101634.66;;;10.73;67.91
20825;BME280;10573;50.936;6.978;2023-02-21T04:55:49;101629.44;;;10.82;67.81
20825;BME280;10573;50.936;6.978;2023-02-21T04:58:14;101633.41;;;10.78;67.48
20825;BME280;10573;50.936;6.978;2023-02-21T05:00:39;101632.94;;;10.84;67.35
20825;BME280;10573;50.936;6.978;2023-02-21T05:03:04;101631.41;;;10.91;67.30
20825;BME280;10573;50.936;6.978;2023-02-21T05:05:30;101628.09;;;10.76;67.45
20825;BME280;10573;50.936;6.978;2023-02-21T05:07:55;101628.44;;;10.94;67.28
20825;BME280;10573;50.936;6.978;2023-02-21T05:10:20;101626.72;;;10.93;67.31
20825;BME280;10573;50.936;6.978;2023-02-21T05:12:46;101629.69;;;10.67;67.85
20825;BME280;10573;50.936;6.978;2023-02-21T05:15:11;101635.00;;;10.69;67.86
20825;BME280;10573;50.936;6.978;2023-02-21T05:17:37;101633.78;;;10.62;68.32
20825;BME280;10573;50.936;6.978;2023-02-21T05:20:03;101632.66;;;10.75;67.59
20825;BME280;10573;50.936;6.978;2023-02-21T05:22:29;101635.38;;;10.75;67.23
20825;BME280;10573;50.936;6.978;2023-02-21T05:24:54;101635.63;;;10.50;68.08
20825;BME280;10573;50.936;6.978;2023-02-21T05:27:20;101628.97;;;10.65;67.43
20825;BME280;10573;50.936;6.978;2023-02-21T05:29:49;101629.19;;;10.62;67.55
20825;BME280;10573;50.936;6.978;2023-02-21T05:32:15;101632.16;;;10.59;67.60
20825;BME280;10573;50.936;6.978;2023-02-21T05:34:41;101634.66;;;10.73;67.59
20825;BME280;10573;50.936;6.978;2023-02-21T05:37:17;101621.75;;;10.87;66.94
20825;BME280;10573;50.936;6.978;2023-02-21T05:39:45;101621.88;;;10.74;67.16
20825;BME280;10573;50.936;6.978;2023-02-21T05:42:10;101623.38;;;10.78;67.30
20825;BME280;10573;50.936;6.978;2023-02-21T05:44:36;101624.47;;;10.75;67.13
20825;BME280;10573;50.936;6.978;2023-02-21T05:47:01;101620.16;;;10.39;67.61
20825;BME280;10573;50.936;6.978;2023-02-21T05:49:27;101616.94;;;10.56;67.46
20825;BME280;10573;50.936;6.978;2023-02-21T05:51:52;101621.03;;;10.51;67.61
20825;BME280;10573;50.936;6.978;2023-02-21T05:54:18;101624.50;;;10.53;67.82
20825;BME280;10573;50.936;6.978;2023-02-21T05:56:45;101623.50;;;10.54;68.01
20825;BME280;10573;50.936;6.978;2023-02-21T05:59:11;101620.03;;;10.63;67.60
20825;BME280;10573;50.936;6.978;2023-02-21T06:01:36;101625.63;;;10.50;67.77
20825;BME280;10573;50.936;6.978;2023-02-21T06:04:02;101621.50;;;10.45;67.80
20825;BME280;10573;50.936;6.978;2023-02-21T06:06:27;101632.78;;;10.51;67.66
20825;BME280;10573;50.936;6.978;2023-02-21T06:08:52;101628.84;;;10.55;67.75
20825;BME280;10573;50.936;6.978;2023-02-21T06:11:22;101624.38;;;10.54;67.72
20825;BME280;10573;50.936;6.978;2023-02-21T06:13:52;101632.63;;;10.30;68.09
20825;BME280;10573;50.936;6.978;2023-02-21T06:16:18;101635.88;;;10.58;67.68
20825;BME280;10573;50.936;6.978;2023-02-21T06:18:43;101637.38;;;10.51;67.74
20825;BME280;10573;50.936;6.978;2023-02-21T06:21:08;101649.25;;;10.38;68.22
20825;BME280;10573;50.936;6.978;2023-02-21T06:23:34;101639.47;;;10.36;68.01
20825;BME280;10573;50.936;6.978;2023-02-21T06:25:59;101634.66;;;10.51;67.87
20825;BME280;10573;50.936;6.978;2023-02-21T06:28:30;101633.91;;;10.60;67.56
20825;BME280;10573;50.936;6.978;2023-02-21T06:30:56;101636.13;;;10.44;67.91
20825;BME280;10573;50.936;6.978;2023-02-21T06:33:22;101630.94;;;10.52;67.83
20825;BME280;10573;50.936;6.978;2023-02-21T06:35:47;101632.94;;;10.61;67.54
20825;BME280;10573;50.936;6.978;2023-02-21T06:38:13;101625.75;;;10.60;67.53
20825;BME280;10573;50.936;6.978;2023-02-21T06:40:38;101631.44;;;10.57;68.31
20825;BME280;10573;50.936;6.978;2023-02-21T06:43:03;101634.16;;;10.68;67.92
20825;BME280;10573;50.936;6.978;2023-02-21T06:45:29;101647.91;;;10.67;68.26
20825;BME280;10573;50.936;6.978;2023-02-21T06:47:54;101639.88;;;10.65;67.83
20825;BME280;10573;50.936;6.978;2023-02-21T06:50:19;101636.38;;;10.63;68.15
20825;BME280;10573;50.936;6.978;2023-02-21T06:52:45;101633.66;;;10.74;68.00
20825;BME280;10573;50.936;6.978;2023-02-21T06:55:10;101644.56;;;10.74;67.57
20825;BME280;10573;50.936;6.978;2023-02-21T06:57:35;101644.81;;;10.60;68.35
20825;BME280;10573;50.936;6.978;2023-02-21T07:00:01;101642.75;;;10.28;69.67
20825;BME280;10573;50.936;6.978;2023-02-21T07:02:26;101635.78;;;10.60;68.73
20825;BME280;10573;50.936;6.978;2023-02-21T07:04:51;101641.22;;;10.60;68.66
20825;BME280;10573;50.936;6.978;2023-02-21T07:07:17;101638.41;;;10.25;69.09
20825;BME280;10573;50.936;6.978;2023-02-21T07:09:42;101644.19;;;10.45;68.99
20825;BME280;10573;50.936;6.978;2023-02-21T07:12:08;101634.16;;;10.46;69.67
20825;BME280;10573;50.936;6.978;2023-02-21T07:14:33;101644.19;;;10.45;69.69
20825;BME280;10573;50.936;6.978;2023-02-21T07:16:59;101645.78;;;10.36;70.29
20825;BME280;10573;50.936;6.978;2023-02-21T07:19:24;101651.00;;;10.39;69.92
20825;BME280;10573;50.936;6.978;2023-02-21T07:21:49;101647.91;;;10.44;69.30
20825;BME280;10573;50.936;6.978;2023-02-21T07:24:14;101645.69;;;10.49;69.57
20825;BME280;10573;50.936;6.978;2023-02-21T07:26:40;101642.56;;;10.54;69.85
20825;BME280;10573;50.936;6.978;2023-02-21T07:29:05;101650.88;;;10.52;69.82
20825;BME280;10573;50.936;6.978;2023-02-21T07:31:31;101652.22;;;10.47;70.05
20825;BME280;10573;50.936;6.978;2023-02-21T07:33:56;101638.47;;;10.48;69.75
20825;BME280;10573;50.936;6.978;2023-02-21T07:36:21;101640.44;;;10.35;70.24
20825;BME280;10573;50.936;6.978;2023-02-21T07:38:47;101643.56;;;10.41;70.09
20825;BME280;10573;50.936;6.978;2023-02-21T07:41:13;101648.84;;;10.32;70.36
20825;BME280;10573;50.936;6.978;2023-02-21T07:43:39;101645.13;;;10.33;70.35
20825;BME280;10573;50.936;6.978;2023-02-21T07:46:08;101649.03;;;10.64;69.29
20825;BME280;10573;50.936;6.978;2023-02-21T07:48:33;101647.78;;;10.57;69.68
20825;BME280;10573;50.936;6.978;2023-02-21T07:50:58;101648.28;;;10.73;69.34
20825;BME280;10573;50.936;6.978;2023-02-21T07:53:23;101654.59;;;10.63;69.60
20825;BME280;10573;50.936;6.978;2023-02-21T07:55:49;101653.47;;;10.54;69.97
20825;BME280;10573;50.936;6.978;2023-02-21T07:58:14;101653.72;;;10.51;70.15
20825;BME280;10573;50.936;6.978;2023-02-21T08:00:39;101648.66;;;10.57;70.10
20825;BME280;10573;50.936;6.978;2023-02-21T08:03:05;101657.44;;;10.50;70.47
20825;BME280;10573;50.936;6.978;2023-02-21T08:05:30;101652.72;;;10.63;70.14
20825;BME280;10573;50.936;6.978;2023-02-21T08:07:55;101644.56;;;10.52;70.90
20825;BME280;10573;50.936;6.978;2023-02-21T08:10:22;101644.31;;;10.66;70.45
20825;BME280;10573;50.936;6.978;2023-02-21T08:12:47;101646.69;;;10.60;70.59
20825;BME280;10573;50.936;6.978;2023-02-21T08:15:13;101651.13;;;10.49;70.95
20825;BME280;10573;50.936;6.978;2023-02-21T08:17:38;101646.31;;;10.53;71.30
20825;BME280;10573;50.936;6.978;2023-02-21T08:20:03;101645.78;;;10.59;70.73
20825;BME280;10573;50.936;6.978;2023-02-21T08:22:30;101646.41;;;10.40;71.41
20825;BME280;10573;50.936;6.978;2023-02-21T08:24:55;101645.06;;;10.68;70.38
20825;BME280;10573;50.936;6.978;2023-02-21T08:27:20;101646.78;;;10.69;70.28
20825;BME280;10573;50.936;6.978;2023-02-21T08:29:48;101650.09;;;10.39;70.91
20825;BME280;10573;50.936;6.978;2023-02-21T08:32:13;101642.34;;;10.57;70.30
20825;BME280;10573;50.936;6.978;2023-02-21T08:34:38;101645.28;;;10.54;70.25
20825;BME280;10573;50.936;6.978;2023-02-21T08:37:04;101642.34;;;10.57;70.17
20825;BME280;10573;50.936;6.978;2023-02-21T08:39:38;101641.84;;;10.63;70.27
20825;BME280;10573;50.936;6.978;2023-02-21T08:42:03;101643.06;;;10.59;70.30
20825;BME280;10573;50.936;6.978;2023-02-21T08:44:29;101642.09;;;10.49;70.29
20825;BME280;10573;50.936;6.978;2023-02-21T08:46:54;101641.09;;;10.72;69.66
20825;BME280;10573;50.936;6.978;2023-02-21T08:49:19;101645.16;;;10.78;69.74
20825;BME280;10573;50.936;6.978;2023-02-21T08:51:45;101649.66;;;10.68;69.76
20825;BME280;10573;50.936;6.978;2023-02-21T08:54:11;101650.88;;;10.52;70.32
20825;BME280;10573;50.936;6.978;2023-02-21T08:56:36;101645.28;;;10.43;70.25
20825;BME280;10573;50.936;6.978;2023-02-21T08:59:02;101647.44;;;10.73;69.75
20825;BME280;10573;50.936;6.978;2023-02-21T09:01:32;101643.56;;;10.87;69.76
20825;BME280;10573;50.936;6.978;2023-02-21T09:03:58;101637.50;;;10.49;70.15
20825;BME280;10573;50.936;6.978;2023-02-21T09:06:23;101645.19;;;10.67;69.89
20825;BME280;10573;50.936;6.978;2023-02-21T09:08:48;101639.22;;;10.62;69.82
20825;BME280;10573;50.936;6.978;2023-02-21T09:11:14;101642.81;;;10.62;70.18
20825;BME280;10573;50.936;6.978;2023-02-21T09:13:39;101646.53;;;10.50;69.86
20825;BME280;10573;50.936;6.978;2023-02-21T09:16:05;101639.59;;;10.46;70.25
20825;BME280;10573;50.936;6.978;2023-02-21T09:18:34;101636.16;;;10.66;69.64
20825;BME280;10573;50.936;6.978;2023-02-21T09:20:59;101642.09;;;10.60;69.75
20825;BME280;10573;50.936;6.978;2023-02-21T09:23:25;101633.78;;;10.62;70.09
20825;BME280;10573;50.936;6.978;2023-02-21T09:25:51;101639.00;;;10.42;69.94
20825;BME280;10573;50.936;6.978;2023-02-21T09:28:16;101627.47;;;10.84;69.43
20825;BME280;10573;50.936;6.978;2023-02-21T09:30:42;101631.41;;;10.91;68.98
20825;BME280;10573;50.936;6.978;2023-02-21T09:33:08;101623.50;;;10.65;69.76
20825;BME280;10573;50.936;6.978;2023-02-21T09:35:33;101626.00;;;10.80;69.75
20825;BME280;10573;50.936;6.978;2023-02-21T09:37:59;101624.63;;;10.85;69.70
20825;BME280;10573;50.936;6.978;2023-02-21T09:42:59;101622.34;;;11.02;69.14
20825;BME280;10573;50.936;6.978;2023-02-21T09:45:27;101617.56;;;10.49;70.69
20825;BME280;10573;50.936;6.978;2023-02-21T09:47:54;101622.78;;;10.74;70.40
20825;BME280;10573;50.936;6.978;2023-02-21T09:50:27;101624.00;;;10.59;70.50
20825;BME280;10573;50.936;6.978;2023-02-21T09:52:56;101620.00;;;10.86;69.99
20825;BME280;10573;50.936;6.978;2023-02-21T09:57:50;101619.53;;;10.92;69.93
20825;BME280;10573;50.936;6.978;2023-02-21T10:00:16;101619.16;;;10.85;69.78
20825;BME280;10573;50.936;6.978;2023-02-21T10:02:47;101621.75;;;10.87;69.78
20825;BME280;10573;50.936;6.978;2023-02-21T10:10:47;101618.50;;;11.04;68.83
20825;BME280;10573;50.936;6.978;2023-02-21T10:21:02;101619.28;;;10.72;70.10
20825;BME280;10573;50.936;6.978;2023-02-21T10:23:35;101624.97;;;10.58;70.51
20825;BME280;10573;50.936;6.978;2023-02-21T10:26:03;101625.09;;;10.56;70.37
20825;BME280;10573;50.936;6.978;2023-02-21T10:28:31;101625.00;;;10.69;70.18
20825;BME280;10573;50.936;6.978;2023-02-21T10:30:58;101624.50;;;10.64;70.43
20825;BME280;10573;50.936;6.978;2023-02-21T10:33:25;101618.81;;;10.79;69.96
20825;BME280;10573;50.936;6.978;2023-02-21T10:35:50;101621.38;;;10.91;69.75
20825;BME280;10573;50.936;6.978;2023-02-21T10:38:19;101624.34;;;10.88;69.64
20825;BME280;10573;50.936;6.978;2023-02-21T10:40:49;101623.75;;;10.73;69.88
20825;BME280;10573;50.936;6.978;2023-02-21T10:45:44;101623.22;;;11.02;69.48
20825;BME280;10573;50.936;6.978;2023-02-21T10:48:13;101621.25;;;11.48;67.76
20825;BME280;10573;50.936;6.978;2023-02-21T10:53:21;101621.81;;;11.31;67.07
20825;BME280;10573;50.936;6.978;2023-02-21T10:56:04;101615.59;;;11.61;66.59
20825;BME280;10573;50.936;6.978;2023-02-21T10:58:30;101613.13;;;11.25;67.75
20825;BME280;10573;50.936;6.978;2023-02-21T11:00:56;101618.13;;;11.53;67.11
20825;BME280;10573;50.936;6.978;2023-02-21T11:03:22;101609.13;;;11.95;65.80
20825;BME280;10573;50.936;6.978;2023-02-21T11:05:51;101608.63;;;11.89;65.75
20825;BME280;10573;50.936;6.978;2023-02-21T11:08:34;101604.84;;;11.81;65.53
20825;BME280;10573;50.936;6.978;2023-02-21T11:11:00;101599.31;;;11.92;65.33
20825;BME280;10573;50.936;6.978;2023-02-21T11:13:32;101606.22;;;12.07;64.73
20825;BME280;10573;50.936;6.978;2023-02-21T11:16:11;101611.66;;;11.54;66.11
20825;BME280;10573;50.936;6.978;2023-02-21T11:18:39;101603.13;;;11.47;66.95
20825;BME280;10573;50.936;6.978;2023-02-21T11:21:11;101598.53;;;11.15;67.84
20825;BME280;10573;50.936;6.978;2023-02-21T11:23:37;101590.50;;;11.67;67.17
20825;BME280;10573;50.936;6.978;2023-02-21T11:26:09;101589.56;;;11.57;67.48
20825;BME280;10573;50.936;6.978;2023-02-21T11:28:39;101580.75;;;11.86;66.18
20825;BME280;10573;50.936;6.978;2023-02-21T11:33:55;101567.34;;;11.83;66.22
20825;BME280;10573;50.936;6.978;2023-02-21T11:36:26;101574.13;;;11.67;66.11
20825;BME280;10573;50.936;6.978;2023-02-21T11:39:03;101575.41;;;12.05;65.26
20825;BME280;10573;50.936;6.978;2023-02-21T11:41:45;101559.69;;;12.19;64.93
20825;BME280;10573;50.936;6.978;2023-02-21T11:44:24;101562.72;;;12.25;65.18
20825;BME280;10573;50.936;6.978;2023-02-21T11:46:52;101553.75;;;12.45;64.10
20825;BME280;10573;50.936;6.978;2023-02-21T11:52:08;101548.69;;;12.81;63.20
20825;BME280;10573;50.936;6.978;2023-02-21T11:54:36;101541.59;;;12.68;63.32
20825;BME280;10573;50.936;6.978;2023-02-21T11:57:19;101551.81;;;12.66;63.09
20825;BME280;10573;50.936;6.978;2023-02-21T11:59:54;101537.13;;;12.67;63.54
20825;BME280;10573;50.936;6.978;2023-02-21T12:21:03;101503.22;;;12.99;63.52
20825;BME280;10573;50.936;6.978;2023-02-21T12:26:17;101501.81;;;13.24;61.73
20825;BME280;10573;50.936;6.978;2023-02-21T12:29:05;101496.00;;;13.67;61.03
20825;BME280;10573;50.936;6.978;2023-02-21T12:36:42;101484.94;;;14.71;57.57
20825;BME280;10573;50.936;6.978;2023-02-21T12:39:15;101480.91;;;14.10;58.90
20825;BME280;10573;50.936;6.978;2023-02-21T12:49:17;101475.63;;;14.82;57.12
20825;BME280;10573;50.936;6.978;2023-02-21T12:52:15;101468.75;;;16.54;54.87
20825;BME280;10573;50.936;6.978;2023-02-21T12:55:00;101447.75;;;17.28;50.29
20825;BME280;10573;50.936;6.978;2023-02-21T12:57:35;101451.34;;;17.37;49.19
20825;BME280;10573;50.936;6.978;2023-02-21T13:00:33;101446.81;;;17.77;49.13
20825;BME280;10573;50.936;6.978;2023-02-21T13:05:53;101444.09;;;18.25;48.53
20825;BME280;10573;50.936;6.978;2023-02-21T13:08:26;101444.38;;;18.39;47.81
20825;BME280;10573;50.936;6.978;2023-02-21T13:11:25;101430.75;;;19.00;46.08
20825;BME280;10573;50.936;6.978;2023-02-21T13:13:52;101432.97;;;18.10;47.31
20825;BME280;10573;50.936;6.978;2023-02-21T13:16:17;101439.81;;;17.01;50.34
20825;BME280;10573;50.936;6.978;2023-02-21T13:29:41;101417.22;;;17.71;50.03
20825;BME280;10573;50.936;6.978;2023-02-21T13:32:10;101416.91;;;17.33;49.11
20825;BME280;10573;50.936;6.978;2023-02-21T13:34:51;101413.66;;;16.29;52.18
20825;BME280;10573;50.936;6.978;2023-02-21T13:37:23;101411.84;;;15.77;53.65
20825;BME280;10573;50.936;6.978;2023-02-21T13:39:53;101406.19;;;16.64;52.07
20825;BME280;10573;50.936;6.978;2023-02-21T13:42:22;101398.25;;;17.68;50.32
20825;BME280;10573;50.936;6.978;2023-02-21T13:44:52;101388.88;;;18.02;48.38
20825;BME280;10573;50.936;6.978;2023-02-21T13:47:20;101395.22;;;18.42;47.13
20825;BME280;10573;50.936;6.978;2023-02-21T13:49:50;101391.44;;;17.31;49.26
20825;BME280;10573;50.936;6.978;2023-02-21T14:10:47;101378.34;;;16.84;50.18
20825;BME280;10573;50.936;6.978;2023-02-21T14:13:21;101378.63;;;17.71;48.67
20825;BME280;10573;50.936;6.978;2023-02-21T14:15:50;101371.75;;;18.15;47.30
20825;BME280;10573;50.936;6.978;2023-02-21T14:18:25;101365.41;;;19.60;45.22
20825;BME280;10573;50.936;6.978;2023-02-21T14:20:54;101362.50;;;18.86;45.09
20825;BME280;10573;50.936;6.978;2023-02-21T14:23:30;101369.69;;;17.61;48.60
20825;BME280;10573;50.936;6.978;2023-02-21T14:26:00;101371.63;;;16.86;50.70
20825;BME280;10573;50.936;6.978;2023-02-21T14:31:45;101359.66;;;18.48;47.02
20825;BME280;10573;50.936;6.978;2023-02-21T14:34:12;101371.69;;;16.10;52.42
20825;BME280;10573;50.936;6.978;2023-02-21T14:36:39;101360.75;;;16.35;52.43
20825;BME280;10573;50.936;6.978;2023-02-21T14:39:06;101352.09;;;18.10;48.36
20825;BME280;10573;50.936;6.978;2023-02-21T14:44:19;101356.88;;;16.96;51.19
20825;BME280;10573;50.936;6.978;2023-02-21T14:52:09;101356.34;;;15.65;53.09
20825;BME280;10573;50.936;6.978;2023-02-21T15:04:49;101340.94;;;16.15;52.65
20825;BME280;10573;50.936;6.978;2023-02-21T15:07:30;101341.94;;;15.37;54.60
20825;BME280;10573;50.936;6.978;2023-02-21T15:12:35;101343.94;;;15.00;55.33
20825;BME280;10573;50.936;6.978;2023-02-21T15:15:03;101339.84;;;15.91;53.99
20825;BME280;10573;50.936;6.978;2023-02-21T15:17:29;101332.25;;;15.59;54.50
20825;BME280;10573;50.936;6.978;2023-02-21T15:20:05;101338.22;;;14.93;56.16
20825;BME280;10573;50.936;6.978;2023-02-21T15:22:37;101337.34;;;14.57;57.75
20825;BME280;10573;50.936;6.978;2023-02-21T15:27:34;101336.88;;;13.80;59.78
20825;BME280;10573;50.936;6.978;2023-02-21T15:30:05;101340.38;;;14.18;59.13
20825;BME280;10573;50.936;6.978;2023-02-21T15:32:31;101338.44;;;14.28;58.75
20825;BME280;10573;50.936;6.978;2023-02-21T15:34:57;101329.59;;;14.34;58.51
20825;BME280;10573;50.936;6.978;2023-02-21T15:37:23;101329.50;;;14.62;57.67
20825;BME280;10573;50.936;6.978;2023-02-21T15:39:55;101330.59;;;14.51;58.03